createdAt,value
2022-10-02T00:01:53.618Z,12.1
2022-10-02T00:11:53.675Z,12.1
2022-10-02T00:21:54.299Z,12.1
2022-10-02T00:31:55.457Z,12.1
2022-10-02T00:41:55.708Z,12.1
2022-10-02T01:01:56.566Z,12.2
2022-10-02T01:11:56.759Z,12.2
2022-10-02T01:21:56.910Z,12.3
2022-10-02T01:31:57.405Z,12.4
2022-10-02T01:41:58.027Z,12.5
2022-10-02T02:11:59.358Z,12.4
2022-10-02T02:31:59.963Z,12.5
2022-10-02T02:42:00.951Z,12.6
2022-10-02T02:52:01.508Z,12.6
2022-10-02T03:02:01.973Z,12.6
2022-10-02T03:12:02.226Z,12.5
2022-10-02T03:22:02.633Z,12.5
2022-10-02T03:32:03.496Z,12.6
2022-10-02T03:42:04.325Z,12.7
2022-10-02T03:52:04.444Z,12.7
2022-10-02T04:02:05.578Z,12.6
2022-10-02T04:12:06.316Z,12.5
2022-10-02T04:22:07.097Z,12.5
2022-10-02T04:32:07.854Z,12.5
2022-10-02T04:42:08.449Z,12.7
2022-10-02T04:52:08.870Z,12.7
2022-10-02T05:02:09.852Z,12.6
2022-10-02T05:22:11.261Z,12.6
2022-10-02T05:32:11.810Z,12.6
2022-10-02T05:52:13.193Z,12.6
2022-10-02T06:02:14.133Z,12.6
2022-10-02T06:12:15.048Z,12.6
2022-10-02T06:22:15.553Z,12.6
2022-10-02T06:32:16.578Z,12.7
2022-10-02T06:42:17.335Z,12.8
2022-10-02T06:52:17.432Z,13
2022-10-02T07:02:17.838Z,13.2
2022-10-02T07:12:18.620Z,13.4
2022-10-02T07:22:39.899Z,13.5
2022-10-02T07:32:19.620Z,13.7
2022-10-02T07:42:20.176Z,13.9
2022-10-02T08:02:21.961Z,14.2
2022-10-02T08:12:22.241Z,14.3
2022-10-02T08:22:22.559Z,14.4
2022-10-02T08:42:24.026Z,14.7
2022-10-02T08:52:24.134Z,14.8
2022-10-02T09:02:25.014Z,14.6
2022-10-02T09:22:25.863Z,14.6
2022-10-02T09:42:27.477Z,14.9
2022-10-02T10:12:29.192Z,15.8
2022-10-02T10:22:29.967Z,16.1
2022-10-02T10:52:32.172Z,16.4
2022-10-02T11:22:33.928Z,16.5
2022-10-02T11:42:35.420Z,16.7
2022-10-02T12:02:37.011Z,16.7
2022-10-02T12:12:37.790Z,16.6
2022-10-02T12:22:38.047Z,16.7
2022-10-02T12:32:38.191Z,17.1
2022-10-02T12:42:38.718Z,16.8
2022-10-02T12:52:39.527Z,16.6
2022-10-02T13:02:59.568Z,16.5
2022-10-02T13:12:40.386Z,16.7
2022-10-02T13:22:40.615Z,16.7
2022-10-02T13:32:41.503Z,16.6
2022-10-02T13:42:42.010Z,16.7
2022-10-02T14:02:43.790Z,16.5
2022-10-02T14:12:44.259Z,17
2022-10-02T14:22:44.561Z,17.5
2022-10-02T14:32:45.173Z,17.9
2022-10-02T14:42:45.846Z,17.9
2022-10-02T14:52:46.644Z,18
2022-10-02T15:02:47.423Z,18.1
2022-10-02T15:12:48.369Z,18.1
2022-10-02T15:13:10.453Z,18.1
2022-10-02T15:22:54.947Z,17.7
2022-10-02T15:32:55.445Z,17.3
2022-10-02T15:42:58.338Z,17.3
2022-10-02T15:52:56.638Z,16.8
2022-10-02T16:02:57.043Z,16.6
2022-10-02T16:22:58.088Z,16.1
2022-10-02T16:32:58.982Z,15.8
2022-10-02T17:03:01.305Z,15.1
2022-10-02T17:13:01.410Z,14.8
2022-10-02T17:53:04.801Z,13.4
2022-10-02T18:03:05.661Z,13.2
2022-10-02T18:43:08.407Z,13.1
2022-10-02T18:53:09.310Z,13.1
2022-10-02T19:03:09.758Z,12.9
2022-10-02T19:13:12.686Z,12.6
2022-10-02T19:23:10.622Z,12.3
2022-10-02T19:33:10.949Z,12.3
2022-10-02T19:43:11.166Z,12.1
2022-10-02T19:53:11.481Z,11.9
2022-10-02T20:03:12.475Z,11.9
2022-10-02T20:13:13.277Z,11.9
2022-10-02T20:23:14.272Z,11.7
2022-10-02T20:33:15.142Z,11.6
2022-10-02T20:43:15.817Z,11.4
2022-10-02T20:53:16.040Z,11.2
2022-10-02T21:03:17.127Z,10.9
2022-10-02T21:13:17.813Z,10.5
2022-10-02T21:23:18.637Z,10.1
2022-10-02T21:33:18.998Z,9.8
2022-10-02T21:43:19.215Z,9.6
2022-10-02T21:53:19.869Z,9.4
2022-10-02T22:03:20.379Z,9.3
2022-10-02T22:13:21.441Z,9.1
2022-10-02T22:23:22.361Z,8.9
2022-10-02T22:33:23.399Z,8.9
2022-10-02T22:43:24.257Z,8.9
2022-10-02T22:53:24.949Z,8.8
2022-10-02T23:03:25.516Z,8.7
2022-10-02T23:13:26.594Z,8.7
2022-10-02T23:23:27.220Z,8.6
2022-10-02T23:33:27.777Z,8.4
2022-10-02T23:43:28.114Z,8.3
2022-10-02T23:53:29.042Z,8.5
